Time;durP1;ratioP1;P1;durP2;ratioP2;P2;SDS_P1;SDS_P2;PMS_P1;PMS_P2;Temp;Humidity;BMP_temperature;BMP_pressure;BME280_temperature;BME280_humidity;BME280_pressure;Samples;Min_cycle;Max_cycle;Signal;HPM_P1;HPM_P2
2021/12/30 00:00:08;;;;;;;0.00;0.00;;;;;21.70;100424.00;;;;5110382;28;20043;-76
2021/12/30 00:02:41;;;;;;;0.65;0.38;;;;;21.60;100434.00;;;;5110737;28;20518;-78
2021/12/30 00:05:11;;;;;;;0.00;0.00;;;;;21.50;100434.00;;;;5110918;28;20115;-77
2021/12/30 00:07:44;;;;;;;0.20;0.20;;;;;21.50;100424.00;;;;5110135;28;20085;-78
2021/12/30 00:10:14;;;;;;;0.57;0.10;;;;;21.60;100413.00;;;;5109403;27;20078;-77
2021/12/30 00:12:44;;;;;;;0.00;0.00;;;;;21.60;100430.00;;;;5110541;28;20050;-77
2021/12/30 00:15:13;;;;;;;0.00;0.00;;;;;21.40;100436.00;;;;5109314;28;20043;-77
2021/12/30 00:17:43;;;;;;;0.00;0.00;;;;;21.40;100423.00;;;;5128050;27;20047;-76
2021/12/30 00:20:13;;;;;;;0.10;0.10;;;;;21.30;100420.00;;;;5129042;27;20046;-76
2021/12/30 00:22:43;;;;;;;0.22;0.15;;;;;21.30;100410.00;;;;5130340;27;20035;-77
2021/12/30 00:25:13;;;;;;;0.00;0.00;;;;;21.30;100438.00;;;;5131139;27;20055;-78
2021/12/30 00:27:42;;;;;;;0.00;0.00;;;;;21.50;100441.00;;;;5129806;27;20100;-76
2021/12/30 00:30:13;;;;;;;0.00;0.00;;;;;21.50;100441.00;;;;5130065;27;20573;-77
2021/12/30 00:32:43;;;;;;;;;;;;;21.40;100446.00;;;;5128773;27;20576;-77
2021/12/30 00:35:13;;;;;;;1.75;0.20;;;;;21.40;100444.00;;;;5129578;27;19930;-76
2021/12/30 00:37:42;;;;;;;0.47;0.17;;;;;21.40;100436.00;;;;5129414;27;20529;-76
2021/12/30 00:40:12;;;;;;;0.52;0.13;;;;;21.40;100423.00;;;;5129298;27;20043;-76
2021/12/30 00:42:42;;;;;;;0.03;0.03;;;;;21.40;100426.00;;;;5129430;27;20035;-77
2021/12/30 00:45:12;;;;;;;0.17;0.15;;;;;21.50;100434.00;;;;5129613;27;20043;-73
2021/12/30 00:47:41;;;;;;;0.10;0.10;;;;;21.40;100455.00;;;;5129570;27;20055;-76
2021/12/30 00:50:11;;;;;;;0.75;0.28;;;;;21.50;100455.00;;;;5130246;27;20486;-76
2021/12/30 00:52:41;;;;;;;1.65;0.40;;;;;21.40;100446.00;;;;5129487;27;20588;-76
2021/12/30 00:55:11;;;;;;;0.32;0.10;;;;;21.40;100453.00;;;;5127981;27;20050;-75
2021/12/30 00:57:41;;;;;;;0.00;0.00;;;;;21.40;100438.00;;;;5125837;27;20055;-76
2021/12/30 01:00:15;;;;;;;0.00;0.00;;;;;21.30;100456.00;;;;5124803;27;20043;-77
2021/12/30 01:02:45;;;;;;;1.35;0.43;;;;;21.40;100457.00;;;;5087215;28;20143;-75
2021/12/30 01:05:15;;;;;;;0.05;0.05;;;;;21.30;100446.00;;;;5087759;28;20122;-76
2021/12/30 01:07:45;;;;;;;0.00;0.00;;;;;21.40;100437.00;;;;5088126;28;20051;-76
2021/12/30 01:10:17;;;;;;;0.10;0.00;;;;;21.40;100454.00;;;;5088078;28;20469;-76
2021/12/30 01:12:48;;;;;;;0.10;0.10;;;;;21.40;100458.00;;;;5087823;28;20052;-76
2021/12/30 01:15:21;;;;;;;0.25;0.05;;;;;21.30;100465.00;;;;5088785;28;20040;-76
2021/12/30 01:17:57;;;;;;;0.00;0.00;;;;;21.20;100452.00;;;;5088212;28;20178;-76
2021/12/30 01:20:27;;;;;;;0.20;0.20;;;;;21.10;100436.00;;;;5088491;28;20048;-75
2021/12/30 01:22:57;;;;;;;0.00;0.00;;;;;21.20;100433.00;;;;5088478;28;20050;-76
2021/12/30 01:25:26;;;;;;;1.95;0.22;;;;;21.20;100434.00;;;;5087939;28;20094;-76
2021/12/30 01:27:56;;;;;;;0.00;0.00;;;;;21.20;100436.00;;;;5088346;28;20055;-78
2021/12/30 01:30:26;;;;;;;0.00;0.00;;;;;21.10;100422.00;;;;5087435;28;20163;-76
2021/12/30 01:32:56;;;;;;;0.00;0.00;;;;;21.10;100440.00;;;;5087813;28;20033;-76
2021/12/30 01:35:26;;;;;;;0.37;0.00;;;;;21.00;100423.00;;;;5088283;28;20123;-75
2021/12/30 01:37:58;;;;;;;0.00;0.00;;;;;20.90;100440.00;;;;5087567;28;20052;-76
2021/12/30 01:40:30;;;;;;;0.00;0.00;;;;;20.80;100438.00;;;;5087949;28;20036;-76
2021/12/30 01:43:01;;;;;;;0.00;0.00;;;;;20.90;100418.00;;;;5087331;28;20062;-76
2021/12/30 01:45:30;;;;;;;0.52;0.52;;;;;20.90;100437.00;;;;5087404;28;20584;-75
2021/12/30 01:48:00;;;;;;;0.03;0.03;;;;;21.10;100428.00;;;;5087608;28;20036;-75
2021/12/30 01:50:31;;;;;;;0.00;0.00;;;;;21.10;100423.00;;;;5087380;28;20055;-75
2021/12/30 01:53:03;;;;;;;0.05;0.05;;;;;21.00;100430.00;;;;5088652;28;20667;-76
2021/12/30 01:55:35;;;;;;;0.13;0.13;;;;;21.00;100435.00;;;;5087991;28;20032;-76
2021/12/30 01:58:06;;;;;;;1.08;1.08;;;;;21.00;100448.00;;;;5087896;28;20579;-76
2021/12/30 02:00:37;;;;;;;0.00;0.00;;;;;20.90;100436.00;;;;5087571;28;20412;-75
2021/12/30 02:03:09;;;;;;;0.03;0.03;;;;;20.80;100437.00;;;;5085785;28;20060;-75
2021/12/30 02:05:40;;;;;;;0.00;0.00;;;;;20.90;100438.00;;;;5087563;28;20072;-75
2021/12/30 02:08:14;;;;;;;0.00;0.00;;;;;20.90;100439.00;;;;5087055;28;20055;-75
2021/12/30 02:10:46;;;;;;;0.00;0.00;;;;;20.90;100441.00;;;;5087210;28;20044;-76
2021/12/30 02:13:18;;;;;;;0.00;0.00;;;;;20.80;100455.00;;;;5086981;28;20032;-76
2021/12/30 02:15:49;;;;;;;0.00;0.00;;;;;20.60;100439.00;;;;5087712;28;20042;-76
2021/12/30 02:18:19;;;;;;;0.00;0.00;;;;;20.40;100444.00;;;;5086727;28;20040;-76
2021/12/30 02:20:51;;;;;;;0.00;0.00;;;;;20.30;100442.00;;;;5087116;28;20054;-75
2021/12/30 02:23:32;;;;;;;0.00;0.00;;;;;20.30;100446.00;;;;5087128;28;20055;-76
2021/12/30 02:26:07;;;;;;;0.00;0.00;;;;;20.30;100433.00;;;;5086952;28;20123;-75
2021/12/30 02:28:38;;;;;;;0.00;0.00;;;;;20.20;100442.00;;;;5087116;28;20040;-76
2021/12/30 02:31:16;;;;;;;0.00;0.00;;;;;20.10;100437.00;;;;5087326;28;20054;-75
2021/12/30 02:33:47;;;;;;;0.00;0.00;;;;;20.00;100422.00;;;;5086751;28;20419;-75
2021/12/30 02:36:21;;;;;;;0.00;0.00;;;;;20.00;100417.00;;;;5087262;28;20040;-75
2021/12/30 02:38:51;;;;;;;0.00;0.00;;;;;20.00;100410.00;;;;5086145;28;20423;-76
2021/12/30 02:41:21;;;;;;;0.00;0.00;;;;;20.10;100400.00;;;;5086578;28;20040;-75
2021/12/30 02:43:51;;;;;;;0.00;0.00;;;;;20.20;100423.00;;;;5085991;28;20059;-76
2021/12/30 02:46:24;;;;;;;0.00;0.00;;;;;20.30;100412.00;;;;5086807;28;20051;-75
2021/12/30 02:48:54;;;;;;;2.10;0.00;;;;;20.30;100396.00;;;;5086640;28;20040;-75
2021/12/30 02:51:26;;;;;;;0.00;0.00;;;;;20.30;100408.00;;;;5086625;28;20628;-76
2021/12/30 02:53:56;;;;;;;;;;;;;20.40;100411.00;;;;5086878;28;20117;-76
2021/12/30 02:56:27;;;;;;;0.00;0.00;;;;;20.40;100380.00;;;;5084864;28;19920;-76
2021/12/30 02:58:57;;;;;;;0.00;0.00;;;;;20.30;100382.00;;;;5085688;28;20419;-75
2021/12/30 03:01:29;;;;;;;0.00;0.00;;;;;20.40;100384.00;;;;5086507;28;20048;-75
2021/12/30 03:04:03;;;;;;;0.00;0.00;;;;;20.30;100388.00;;;;5086239;28;20052;-76
2021/12/30 03:06:33;;;;;;;0.00;0.00;;;;;20.30;100401.00;;;;5086493;28;20473;-75
2021/12/30 03:09:04;;;;;;;0.00;0.00;;;;;20.30;100382.00;;;;5085025;28;20511;-75
2021/12/30 03:11:33;;;;;;;;;;;;;20.40;100398.00;;;;5086728;28;20044;-75
2021/12/30 03:14:03;;;;;;;0.00;0.00;;;;;20.20;100385.00;;;;5085777;28;19923;-75
2021/12/30 03:16:37;;;;;;;0.20;0.20;;;;;20.20;100396.00;;;;5086029;28;20052;-75
2021/12/30 03:19:08;;;;;;;0.00;0.00;;;;;20.30;100340.00;;;;5086178;28;20036;-76
2021/12/30 03:21:39;;;;;;;0.00;0.00;;;;;20.20;100370.00;;;;5085658;28;20130;-76
2021/12/30 03:24:08;;;;;;;0.00;0.00;;;;;20.10;100389.00;;;;5085985;28;20044;-75
2021/12/30 03:26:38;;;;;;;0.00;0.00;;;;;20.10;100373.00;;;;5086041;28;20527;-76
2021/12/30 03:29:08;;;;;;;0.00;0.00;;;;;20.10;100372.00;;;;5086142;28;20051;-75
2021/12/30 03:31:37;;;;;;;0.00;0.00;;;;;20.10;100348.00;;;;5086013;28;20069;-76
2021/12/30 03:34:07;;;;;;;0.00;0.00;;;;;20.10;100356.00;;;;5085913;28;20536;-76
2021/12/30 03:36:37;;;;;;;0.00;0.00;;;;;20.20;100385.00;;;;5085788;28;20512;-75
2021/12/30 03:39:08;;;;;;;0.00;0.00;;;;;20.20;100377.00;;;;5086121;28;20047;-75
2021/12/30 03:41:37;;;;;;;0.00;0.00;;;;;20.20;100368.00;;;;5084091;28;20044;-75
2021/12/30 03:44:07;;;;;;;0.00;0.00;;;;;20.20;100369.00;;;;5085915;28;20852;-75
2021/12/30 03:46:36;;;;;;;0.00;0.00;;;;;20.10;100354.00;;;;5086099;28;20048;-75
2021/12/30 03:49:06;;;;;;;0.00;0.00;;;;;20.10;100347.00;;;;5084999;28;20078;-75
2021/12/30 03:51:39;;;;;;;0.00;0.00;;;;;20.00;100352.00;;;;5086107;28;20439;-75
2021/12/30 03:54:09;;;;;;;0.00;0.00;;;;;20.00;100353.00;;;;5085882;28;20504;-76
2021/12/30 03:56:39;;;;;;;0.00;0.00;;;;;20.00;100340.00;;;;5086635;28;20507;-75
2021/12/30 03:59:09;;;;;;;0.00;0.00;;;;;20.00;100352.00;;;;5084492;28;20530;-76
2021/12/30 04:01:38;;;;;;;0.00;0.00;;;;;19.90;100340.00;;;;5085570;28;20485;-75
2021/12/30 04:04:08;;;;;;;0.10;0.10;;;;;19.90;100332.00;;;;5085863;28;21061;-75
2021/12/30 04:06:38;;;;;;;0.00;0.00;;;;;19.80;100335.00;;;;5085618;28;20126;-75
2021/12/30 04:09:07;;;;;;;0.00;0.00;;;;;19.80;100345.00;;;;5085786;28;20044;-75
2021/12/30 04:11:37;;;;;;;0.00;0.00;;;;;19.70;100333.00;;;;5085584;28;20048;-76
2021/12/30 04:14:06;;;;;;;0.00;0.00;;;;;19.70;100320.00;;;;5084235;28;20078;-75
2021/12/30 04:16:36;;;;;;;0.00;0.00;;;;;19.60;100342.00;;;;5084983;28;20056;-75
2021/12/30 04:19:06;;;;;;;0.00;0.00;;;;;19.60;100326.00;;;;5085310;28;20044;-75
2021/12/30 04:21:36;;;;;;;0.00;0.00;;;;;19.50;100337.00;;;;5085834;28;20453;-75
2021/12/30 04:24:05;;;;;;;0.00;0.00;;;;;19.60;100337.00;;;;5085173;28;20067;-75
2021/12/30 04:26:35;;;;;;;0.10;0.10;;;;;19.60;100310.00;;;;5085165;28;20043;-75
2021/12/30 04:29:07;;;;;;;1.55;0.40;;;;;19.60;100319.00;;;;5084095;28;20594;-75
2021/12/30 04:31:37;;;;;;;0.10;0.10;;;;;19.50;100332.00;;;;5085145;28;20044;-75
2021/12/30 04:34:06;;;;;;;0.00;0.00;;;;;19.50;100324.00;;;;5088531;28;20048;-75
2021/12/30 04:36:36;;;;;;;0.00;0.00;;;;;19.50;100309.00;;;;5088101;28;20032;-75
2021/12/30 04:39:06;;;;;;;0.00;0.00;;;;;19.60;100326.00;;;;5089152;28;20075;-75
2021/12/30 04:41:36;;;;;;;0.00;0.00;;;;;19.60;100310.00;;;;5088865;28;20060;-75
2021/12/30 04:44:06;;;;;;;0.00;0.00;;;;;19.50;100307.00;;;;5089019;28;20056;-75
2021/12/30 04:46:37;;;;;;;0.00;0.00;;;;;19.50;100313.00;;;;5089068;28;20043;-76
2021/12/30 04:49:07;;;;;;;0.00;0.00;;;;;19.50;100307.00;;;;5088929;28;20040;-75
2021/12/30 04:51:36;;;;;;;0.00;0.00;;;;;19.40;100298.00;;;;5088504;28;20051;-75
2021/12/30 04:54:06;;;;;;;0.00;0.00;;;;;19.40;100315.00;;;;5088744;28;20048;-75
2021/12/30 04:56:35;;;;;;;0.10;0.10;;;;;19.40;100293.00;;;;5088753;28;20044;-75
2021/12/30 04:59:04;;;;;;;0.00;0.00;;;;;19.40;100288.00;;;;5087526;28;20515;-75
2021/12/30 05:01:34;;;;;;;0.00;0.00;;;;;19.30;100296.00;;;;5088608;28;20044;-75
2021/12/30 05:04:03;;;;;;;0.00;0.00;;;;;19.30;100317.00;;;;5087673;28;20076;-75
2021/12/30 05:06:36;;;;;;;0.00;0.00;;;;;19.20;100325.00;;;;5088064;28;20044;-75
2021/12/30 05:09:09;;;;;;;0.00;0.00;;;;;19.30;100312.00;;;;5088372;28;20048;-75
2021/12/30 05:11:41;;;;;;;0.00;0.00;;;;;19.20;100308.00;;;;5088669;28;20047;-75
2021/12/30 05:14:12;;;;;;;0.00;0.00;;;;;19.20;100308.00;;;;5088732;28;20054;-75
2021/12/30 05:16:42;;;;;;;0.00;0.00;;;;;19.10;100292.00;;;;5088654;28;20052;-75
2021/12/30 05:19:12;;;;;;;0.00;0.00;;;;;19.20;100301.00;;;;5087764;28;20051;-75
2021/12/30 05:21:41;;;;;;;0.00;0.00;;;;;19.20;100290.00;;;;5088073;28;20050;-75
2021/12/30 05:24:11;;;;;;;0.00;0.00;;;;;19.20;100288.00;;;;5088229;28;20067;-75
2021/12/30 05:26:41;;;;;;;0.00;0.00;;;;;19.10;100299.00;;;;5087218;28;20058;-75
2021/12/30 05:29:11;;;;;;;0.00;0.00;;;;;19.10;100304.00;;;;5087681;28;20044;-76
2021/12/30 05:31:41;;;;;;;0.00;0.00;;;;;19.00;100313.00;;;;5088092;28;20071;-74
2021/12/30 05:34:12;;;;;;;0.10;0.10;;;;;19.10;100305.00;;;;5090582;28;20044;-75
2021/12/30 05:36:42;;;;;;;0.00;0.00;;;;;19.10;100302.00;;;;5088306;28;20052;-76
2021/12/30 05:39:12;;;;;;;0.00;0.00;;;;;19.10;100301.00;;;;5088491;28;20047;-75
2021/12/30 05:41:42;;;;;;;0.00;0.00;;;;;19.20;100297.00;;;;5087780;28;20044;-76
2021/12/30 05:44:12;;;;;;;0.00;0.00;;;;;19.20;100277.00;;;;5089641;28;20460;-76
2021/12/30 05:46:41;;;;;;;0.00;0.00;;;;;19.20;100273.00;;;;5094385;28;20056;-75
2021/12/30 05:49:11;;;;;;;0.00;0.00;;;;;19.20;100292.00;;;;5091992;28;20139;-76
2021/12/30 05:51:41;;;;;;;0.00;0.00;;;;;19.10;100288.00;;;;5088330;28;20106;-76
2021/12/30 05:54:11;;;;;;;0.00;0.00;;;;;19.10;100280.00;;;;5088780;28;20059;-77
2021/12/30 05:56:40;;;;;;;0.00;0.00;;;;;19.00;100301.00;;;;5089592;28;20043;-78
2021/12/30 05:59:09;;;;;;;0.00;0.00;;;;;19.00;100297.00;;;;5087928;28;20132;-79
2021/12/30 06:01:39;;;;;;;0.00;0.00;;;;;19.00;100295.00;;;;5087913;28;20423;-80
2021/12/30 06:04:08;;;;;;;0.00;0.00;;;;;19.00;100272.00;;;;5089307;28;20062;-76
2021/12/30 06:06:38;;;;;;;0.00;0.00;;;;;19.00;100291.00;;;;5088703;28;20135;-75
2021/12/30 06:09:07;;;;;;;0.60;0.20;;;;;19.00;100291.00;;;;5089311;28;20036;-77
2021/12/30 06:11:37;;;;;;;0.00;0.00;;;;;19.00;100274.00;;;;5089020;28;20049;-79
2021/12/30 06:14:06;;;;;;;0.08;0.00;;;;;19.10;100294.00;;;;5088700;28;20055;-79
2021/12/30 06:16:36;;;;;;;0.00;0.00;;;;;19.10;100277.00;;;;5088990;28;20059;-78
2021/12/30 06:19:05;;;;;;;0.00;0.00;;;;;19.20;100281.00;;;;5089446;28;20892;-80
2021/12/30 06:21:35;;;;;;;0.00;0.00;;;;;19.20;100287.00;;;;5089082;28;20039;-76
2021/12/30 06:24:05;;;;;;;0.00;0.00;;;;;19.20;100291.00;;;;5088452;28;20051;-80
2021/12/30 06:26:34;;;;;;;0.00;0.00;;;;;19.30;100294.00;;;;5088778;28;20047;-78
2021/12/30 06:29:04;;;;;;;0.00;0.00;;;;;19.30;100277.00;;;;5087936;28;20044;-77
2021/12/30 06:31:34;;;;;;;0.00;0.00;;;;;19.20;100290.00;;;;5087697;28;20096;-78
2021/12/30 06:34:03;;;;;;;0.00;0.00;;;;;19.20;100285.00;;;;5089131;28;20063;-76
2021/12/30 06:36:33;;;;;;;0.00;0.00;;;;;19.20;100290.00;;;;5088972;28;20048;-75
2021/12/30 06:39:03;;;;;;;0.00;0.00;;;;;19.10;100290.00;;;;5088295;28;20101;-77
2021/12/30 06:41:32;;;;;;;0.00;0.00;;;;;19.00;100281.00;;;;5088953;28;20146;-76
2021/12/30 06:44:02;;;;;;;0.00;0.00;;;;;19.00;100289.00;;;;5088096;28;20048;-77
2021/12/30 06:46:31;;;;;;;0.00;0.00;;;;;18.90;100305.00;;;;5088921;28;20120;-75
2021/12/30 06:49:03;;;;;;;0.00;0.00;;;;;18.90;100310.00;;;;5088368;28;20457;-76
2021/12/30 06:51:35;;;;;;;0.00;0.00;;;;;18.80;100291.00;;;;5087921;28;20040;-76
2021/12/30 06:54:05;;;;;;;0.00;0.00;;;;;18.80;100300.00;;;;5088090;28;20519;-76
2021/12/30 06:56:35;;;;;;;0.10;0.10;;;;;18.80;100277.00;;;;5088257;28;20048;-77
2021/12/30 06:59:05;;;;;;;0.00;0.00;;;;;18.80;100283.00;;;;5087238;28;20040;-77
2021/12/30 07:01:34;;;;;;;0.00;0.00;;;;;18.80;100300.00;;;;5087121;28;20048;-77
2021/12/30 07:04:04;;;;;;;0.00;0.00;;;;;18.80;100278.00;;;;5088655;28;20130;-76
2021/12/30 07:06:34;;;;;;;0.00;0.00;;;;;18.70;100295.00;;;;5089227;28;20056;-77
2021/12/30 07:09:04;;;;;;;0.00;0.00;;;;;18.70;100288.00;;;;5087848;28;20105;-75
2021/12/30 07:11:33;;;;;;;0.00;0.00;;;;;18.70;100283.00;;;;5089008;28;20047;-79
2021/12/30 07:14:03;;;;;;;0.00;0.00;;;;;18.70;100286.00;;;;5088855;28;20545;-77
2021/12/30 07:16:32;;;;;;;1.25;0.20;;;;;18.70;100288.00;;;;5087819;28;20047;-79
2021/12/30 07:19:01;;;;;;;0.00;0.00;;;;;18.70;100282.00;;;;5088858;28;20076;-77
2021/12/30 07:21:31;;;;;;;0.47;0.47;;;;;18.70;100301.00;;;;5088976;28;20052;-76
2021/12/30 07:24:00;;;;;;;0.00;0.00;;;;;18.70;100303.00;;;;5089222;28;20036;-76
2021/12/30 07:26:29;;;;;;;0.00;0.00;;;;;18.60;100304.00;;;;5089435;28;20093;-77
2021/12/30 07:28:59;;;;;;;0.00;0.00;;;;;18.60;100308.00;;;;5089156;28;20068;-76
2021/12/30 07:31:29;;;;;;;0.00;0.00;;;;;18.50;100302.00;;;;5088894;28;20051;-76
2021/12/30 07:33:58;;;;;;;0.00;0.00;;;;;18.60;100298.00;;;;5087243;28;20044;-77
2021/12/30 07:36:28;;;;;;;0.00;0.00;;;;;18.60;100306.00;;;;5088982;28;20075;-76
2021/12/30 07:38:58;;;;;;;0.00;0.00;;;;;18.50;100301.00;;;;5088642;28;20036;-78
2021/12/30 07:41:27;;;;;;;0.00;0.00;;;;;18.50;100304.00;;;;5087518;28;20101;-76
2021/12/30 07:43:56;;;;;;;0.00;0.00;;;;;18.40;100296.00;;;;5087043;28;20044;-76
2021/12/30 07:46:26;;;;;;;0.00;0.00;;;;;18.40;100304.00;;;;5088294;28;20048;-75
2021/12/30 07:48:55;;;;;;;0.00;0.00;;;;;18.40;100296.00;;;;5090610;28;20059;-77
2021/12/30 07:51:25;;;;;;;0.00;0.00;;;;;18.50;100311.00;;;;5090051;28;20040;-78
2021/12/30 07:53:54;;;;;;;0.00;0.00;;;;;18.40;100311.00;;;;5089635;28;20058;-78
2021/12/30 07:56:24;;;;;;;0.00;0.00;;;;;18.40;100296.00;;;;5088639;28;20040;-78
2021/12/30 07:58:56;;;;;;;0.00;0.00;;;;;18.50;100317.00;;;;5088490;28;20123;-77
2021/12/30 08:01:26;;;;;;;0.00;0.00;;;;;18.40;100299.00;;;;5090309;28;20048;-77
2021/12/30 08:03:56;;;;;;;0.35;0.32;;;;;18.40;100306.00;;;;5089104;28;20054;-76
2021/12/30 08:06:27;;;;;;;0.00;0.00;;;;;18.40;100318.00;;;;5089920;28;20051;-77
2021/12/30 08:08:57;;;;;;;0.20;0.20;;;;;18.40;100312.00;;;;5092463;28;20044;-76
2021/12/30 08:11:27;;;;;;;0.00;0.00;;;;;18.40;100326.00;;;;5092317;28;20044;-77
2021/12/30 08:13:59;;;;;;;0.00;0.00;;;;;18.40;100303.00;;;;5092875;28;20040;-76
2021/12/30 08:16:30;;;;;;;0.00;0.00;;;;;18.50;100323.00;;;;5092179;28;20080;-77
2021/12/30 08:18:59;;;;;;;0.00;0.00;;;;;18.50;100303.00;;;;5092239;28;20094;-78
2021/12/30 08:21:29;;;;;;;0.00;0.00;;;;;18.50;100313.00;;;;5091792;28;20043;-79
2021/12/30 08:23:58;;;;;;;0.00;0.00;;;;;18.50;100324.00;;;;5091299;28;20094;-78
2021/12/30 08:26:27;;;;;;;0.17;0.17;;;;;18.50;100321.00;;;;5091944;28;20518;-77
2021/12/30 08:28:57;;;;;;;0.00;0.00;;;;;18.50;100336.00;;;;5091825;28;20047;-75
2021/12/30 08:31:26;;;;;;;0.30;0.30;;;;;18.50;100335.00;;;;5092269;28;20056;-76
2021/12/30 08:33:58;;;;;;;0.00;0.00;;;;;18.70;100334.00;;;;5092771;28;20068;-78
2021/12/30 08:36:27;;;;;;;0.03;0.03;;;;;18.70;100333.00;;;;5092815;28;20525;-77
2021/12/30 08:38:57;;;;;;;0.10;0.10;;;;;18.80;100335.00;;;;5092151;28;20050;-77
2021/12/30 08:41:27;;;;;;;0.10;0.10;;;;;18.80;100330.00;;;;5092600;28;20523;-79
2021/12/30 08:43:56;;;;;;;0.00;0.00;;;;;18.90;100352.00;;;;5092906;28;20040;-78
2021/12/30 08:46:26;;;;;;;0.00;0.00;;;;;18.90;100339.00;;;;5092209;28;20060;-75
2021/12/30 08:48:56;;;;;;;0.05;0.05;;;;;18.90;100333.00;;;;5092888;28;20688;-75
2021/12/30 08:51:26;;;;;;;0.00;0.00;;;;;18.90;100326.00;;;;5092517;28;20036;-77
2021/12/30 08:53:56;;;;;;;0.00;0.00;;;;;19.00;100324.00;;;;5092432;28;20290;-77
2021/12/30 08:56:25;;;;;;;0.00;0.00;;;;;19.10;100343.00;;;;5092483;28;20048;-80
2021/12/30 08:58:55;;;;;;;0.00;0.00;;;;;19.20;100345.00;;;;5091283;28;20044;-77
2021/12/30 09:01:24;;;;;;;0.00;0.00;;;;;19.30;100338.00;;;;5091176;28;20734;-77
2021/12/30 09:03:54;;;;;;;0.00;0.00;;;;;19.40;100344.00;;;;5091948;28;20099;-77
2021/12/30 09:06:24;;;;;;;0.00;0.00;;;;;19.40;100309.00;;;;5092634;28;20040;-77
2021/12/30 09:08:54;;;;;;;0.00;0.00;;;;;19.50;100330.00;;;;5092527;28;20043;-76
2021/12/30 09:11:23;;;;;;;0.00;0.00;;;;;19.50;100324.00;;;;5092469;28;20050;-79
2021/12/30 09:13:52;;;;;;;0.00;0.00;;;;;19.60;100323.00;;;;5093396;28;20076;-78
2021/12/30 09:16:22;;;;;;;0.00;0.00;;;;;19.90;100345.00;;;;5093986;28;20461;-76
2021/12/30 09:18:51;;;;;;;0.68;0.65;;;;;20.10;100313.00;;;;5092130;28;20619;-78
2021/12/30 09:21:21;;;;;;;328.85;60.05;;;;;20.30;100349.00;;;;5094046;28;20052;-79
2021/12/30 09:23:50;;;;;;;0.00;0.00;;;;;20.50;100324.00;;;;5092796;28;20056;-76
2021/12/30 09:26:20;;;;;;;237.75;89.22;;;;;20.60;100322.00;;;;5093866;28;20039;-77
2021/12/30 09:28:49;;;;;;;0.45;0.45;;;;;20.80;100337.00;;;;5092143;28;20032;-77
2021/12/30 09:31:19;;;;;;;0.00;0.00;;;;;21.00;100326.00;;;;5092611;28;20040;-74
2021/12/30 09:33:48;;;;;;;0.00;0.00;;;;;21.60;100300.00;;;;5092853;28;20123;-79
2021/12/30 09:36:18;;;;;;;0.00;0.00;;;;;22.10;100313.00;;;;5093073;28;20044;-76
2021/12/30 09:38:47;;;;;;;0.00;0.00;;;;;24.40;100212.00;;;;5092928;28;20063;-77
2021/12/30 09:41:17;;;;;;;0.03;0.03;;;;;23.90;100281.00;;;;5093128;28;20048;-77
2021/12/30 09:43:47;;;;;;;0.00;0.00;;;;;22.80;100333.00;;;;5093239;28;20052;-79
2021/12/30 09:46:18;;;;;;;0.28;0.28;;;;;23.00;100305.00;;;;5092953;28;20051;-75
2021/12/30 09:48:49;;;;;;;0.00;0.00;;;;;22.70;100322.00;;;;5089723;28;20048;-77
2021/12/30 09:51:21;;;;;;;0.00;0.00;;;;;24.40;100292.00;;;;5087713;28;20044;-76
2021/12/30 09:53:53;;;;;;;;;;;;;23.00;100352.00;;;;5089431;28;20122;-77
2021/12/30 09:56:23;;;;;;;0.00;0.00;;;;;22.70;100357.00;;;;5089577;28;19936;-80
2021/12/30 09:58:52;;;;;;;0.00;0.00;;;;;22.50;100360.00;;;;5089304;28;20624;-77
2021/12/30 10:01:23;;;;;;;0.00;0.00;;;;;22.60;100352.00;;;;5090726;28;20520;-77
2021/12/30 10:04:01;;;;;;;0.00;0.00;;;;;22.60;100364.00;;;;5086715;28;20064;-78
2021/12/30 10:06:32;;;;;;;0.00;0.00;;;;;22.70;100343.00;;;;5090076;28;20127;-78
2021/12/30 10:09:12;;;;;;;;;;;;;22.80;100369.00;;;;5090105;28;20048;-77
2021/12/30 10:11:51;;;;;;;0.15;0.15;;;;;23.00;100372.00;;;;5089189;28;19920;-78
2021/12/30 10:14:36;;;;;;;0.00;0.00;;;;;23.20;100369.00;;;;5086938;28;20453;-79
2021/12/30 10:17:25;;;;;;;0.00;0.00;;;;;23.30;100362.00;;;;5087206;28;20522;-75
2021/12/30 10:20:14;;;;;;;0.28;0.28;;;;;23.40;100366.00;;;;5087472;28;20048;-79
2021/12/30 10:22:46;;;;;;;0.00;0.00;;;;;23.40;100352.00;;;;5089596;28;20056;-75
2021/12/30 10:25:26;;;;;;;0.00;0.00;;;;;23.70;100369.00;;;;5089301;28;20048;-77
2021/12/30 10:28:15;;;;;;;0.20;0.20;;;;;24.30;100360.00;;;;5089239;28;20040;-78
2021/12/30 10:30:45;;;;;;;0.15;0.15;;;;;24.10;100359.00;;;;5089031;28;20593;-76
2021/12/30 10:33:19;;;;;;;0.20;0.20;;;;;25.50;100267.00;;;;5088201;28;20036;-77
2021/12/30 10:35:50;;;;;;;0.00;0.00;;;;;26.60;100333.00;;;;5089969;28;20335;-77
2021/12/30 10:38:20;;;;;;;0.00;0.00;;;;;26.00;100363.00;;;;5088485;28;20044;-77
2021/12/30 10:40:53;;;;;;;0.00;0.00;;;;;25.40;100345.00;;;;5089259;28;20044;-78
2021/12/30 10:43:34;;;;;;;0.00;0.00;;;;;26.50;100319.00;;;;5088301;28;20105;-79
2021/12/30 10:46:06;;;;;;;0.00;0.00;;;;;25.50;100355.00;;;;5089161;28;20094;-78
2021/12/30 10:49:01;;;;;;;0.00;0.00;;;;;25.30;100358.00;;;;5092672;28;20070;-78
2021/12/30 10:51:47;;;;;;;0.00;0.00;;;;;25.70;100326.00;;;;5091043;28;20044;-78
2021/12/30 10:54:37;;;;;;;0.00;0.00;;;;;25.60;100361.00;;;;5090800;28;20508;-78
2021/12/30 10:57:10;;;;;;;0.65;0.20;;;;;25.60;100364.00;;;;5091766;28;20040;-78
2021/12/30 10:59:42;;;;;;;0.32;0.28;;;;;25.60;100355.00;;;;5089789;28;20093;-78
2021/12/30 11:02:21;;;;;;;0.00;0.00;;;;;25.90;100362.00;;;;5088972;28;20415;-78
2021/12/30 11:04:57;;;;;;;0.00;0.00;;;;;26.20;100346.00;;;;5090833;28;20516;-77
2021/12/30 11:07:43;;;;;;;0.00;0.00;;;;;27.50;100270.00;;;;5091952;28;20036;-78
2021/12/30 11:10:16;;;;;;;0.00;0.00;;;;;33.70;100165.00;;;;5090623;28;20040;-78
2021/12/30 11:12:47;;;;;;;1.55;0.20;;;;;35.40;100158.00;;;;5092176;28;20523;-76
2021/12/30 11:15:25;;;;;;;0.00;0.00;;;;;36.20;100168.00;;;;5092043;28;20451;-79
2021/12/30 11:18:22;;;;;;;0.00;0.00;;;;;37.40;100175.00;;;;5087613;28;20093;-77
2021/12/30 11:20:52;;;;;;;0.00;0.00;;;;;38.00;100158.00;;;;5090002;28;20544;-77
2021/12/30 11:23:22;;;;;;;0.00;0.00;;;;;37.70;100164.00;;;;5090635;28;20538;-76
2021/12/30 11:25:51;;;;;;;0.00;0.00;;;;;38.10;100147.00;;;;5088788;28;20115;-76
2021/12/30 11:28:21;;;;;;;0.00;0.00;;;;;38.60;100163.00;;;;5090193;28;20044;-79
2021/12/30 11:30:51;;;;;;;0.00;0.00;;;;;38.30;100160.00;;;;5091891;28;20048;-77
2021/12/30 11:33:25;;;;;;;0.10;0.10;;;;;38.40;100144.00;;;;5091251;28;20048;-78
2021/12/30 11:35:56;;;;;;;0.00;0.00;;;;;38.10;100160.00;;;;5091734;28;20047;-77
2021/12/30 11:38:25;;;;;;;0.00;0.00;;;;;37.80;100160.00;;;;5093155;28;20040;-77
2021/12/30 11:40:55;;;;;;;0.55;0.55;;;;;38.10;100172.00;;;;5092281;28;20040;-78
2021/12/30 11:43:42;;;;;;;0.00;0.00;;;;;37.00;100162.00;;;;5097881;28;20040;-78
2021/12/30 11:46:39;;;;;;;0.00;0.00;;;;;36.20;100169.00;;;;5097250;28;20096;-80
2021/12/30 11:49:14;;;;;;;0.00;0.00;;;;;35.50;100178.00;;;;5093672;28;20036;-78
2021/12/30 11:51:51;;;;;;;0.00;0.00;;;;;35.50;100186.00;;;;5096742;28;20056;-77
2021/12/30 11:54:38;;;;;;;0.00;0.00;;;;;34.50;100181.00;;;;5097678;28;20777;-77
2021/12/30 11:57:32;;;;;;;0.08;0.08;;;;;34.20;100198.00;;;;5097038;28;20070;-78
2021/12/30 12:00:37;;;;;;;0.00;0.00;;;;;33.70;100227.00;;;;5097145;28;20462;-77
2021/12/30 12:03:34;;;;;;;0.00;0.00;;;;;33.00;100268.00;;;;5096787;28;20051;-79
2021/12/30 12:06:27;;;;;;;0.00;0.00;;;;;33.10;100296.00;;;;5096782;28;20044;-81
2021/12/30 12:09:20;;;;;;;0.00;0.00;;;;;33.10;100302.00;;;;5094455;28;20078;-78
2021/12/30 12:11:54;;;;;;;0.32;0.32;;;;;33.40;100306.00;;;;5089377;28;20501;-76
2021/12/30 12:14:41;;;;;;;0.00;0.00;;;;;33.60;100285.00;;;;5094461;28;20066;-78
2021/12/30 12:17:28;;;;;;;0.00;0.00;;;;;32.60;100305.00;;;;5094748;28;20376;-77
2021/12/30 12:20:12;;;;;;;0.00;0.00;;;;;32.20;100282.00;;;;5093873;28;20051;-76
2021/12/30 12:22:42;;;;;;;0.00;0.00;;;;;32.10;100286.00;;;;5093842;28;20180;-77
2021/12/30 12:25:22;;;;;;;0.08;0.03;;;;;32.20;100294.00;;;;5093708;28;20594;-78
2021/12/30 12:27:54;;;;;;;0.00;0.00;;;;;32.00;100273.00;;;;5092144;28;20142;-76
2021/12/30 12:30:35;;;;;;;0.00;0.00;;;;;32.10;100284.00;;;;5093867;28;20078;-78